• Join FlightAware (Why Join?)
  • Login
  • US Flag 
09:46AM EDT


 

Airport Tracker/Info


-or-


 

Live Flight TrackerFlight Track Log ✈ AWE1092 ✈ 09-Jul-2013 ✈ KPHL - KRDU

Flight Track Log - Related Links

Times and Time Zones

All times are in EDT time to prevent confusion due to time zone crossing. See the AWE1092 flight status page for this flight to view local times or setup timezone preferences in your user account.

Time Position Orientation Groundspeed Altitude Reporting Facility
EDT Latitude Longitude Course Direction KTS MPH feet Rate Location/Type
10:00AM 39.8667 -75.2667 201° Southwest 152 175 700  Level Philadelphia TRACON
10:02AM 39.5675 -75.3032 189° South  Level FlightAware Approximate
10:02AM 39.7986 -75.3403 220° Southwest 173 199 3,500  Level Washington Center
10:03AM 39.4649 -75.3284 194° South  Level FlightAware Approximate
10:03AM 39.7406 -75.3919 214° Southwest 221 254 6,300  Level Washington Center
10:04AM 39.3611 -75.3414 185° South  Level FlightAware Approximate
10:04AM 39.6614 -75.4028 186° South 261 300 9,600  Level Washington Center
10:05AM 39.2587 -75.3623 201° Southwest  Level FlightAware Approximate
10:05AM 39.5697 -75.3978 178° South 294 338 11,500  Level Washington Center
10:06AM 39.4717 -75.3900 176° South 333 383 13,000 960 Climbing Washington Center
10:07AM 39.3694 -75.3875 179° South 355 409 13,500 1,260 Climbing Washington Center
10:08AM 39.2758 -75.3825 178° South 366 421 15,600 1,200 Climbing Washington Center
10:09AM 39.1694 -75.3881 182° South 371 427 16,000 240 Climbing Washington Center
10:10AM 39.0736 -75.4017 186° South 369 425 16,100 960 Climbing Washington Center
10:11AM 38.9778 -75.4153 186° South 362 417 17,900 2,040 Climbing Washington Center
10:12AM 38.8797 -75.4342 189° South 357 411 20,200 1,920 Climbing Washington Center
10:13AM 38.7756 -75.4478 186° South 368 423 21,900 1,680 Climbing Washington Center
10:14AM 38.6650 -75.4667 188° South 383 441 23,700 1,800 Climbing Washington Center
10:15AM 38.5506 -75.4828 186° South 409 471 25,500 1,140 Climbing Washington Center
10:16AM 38.4336 -75.4989 186° South 422 486 26,000 240 Climbing Washington Center
10:17AM 38.3211 -75.5361 195° South 422 486 26,000  Level Washington Center
10:18AM 38.2272 -75.6181 214° Southwest 416 479 26,000 300 Level Washington Center
10:19AM 38.1356 -75.7000 215° Southwest 409 471 26,600 960 Climbing Washington Center
10:20AM 38.0375 -75.8053 220° Southwest 418 481 28,000 660 Climbing Washington Center
10:21AM 37.9392 -75.8814 211° Southwest 418 481 28,000  Level Washington Center
10:22AM 37.8494 -75.9653 216° Southwest 418 481 28,000  Level Washington Center
10:23AM 37.7594 -76.0514 217° Southwest 418 481 28,000  Level Washington Center
10:24AM 37.6650 -76.1400 217° Southwest 418 481 28,000 -540 Level Washington Center
10:25AM 37.5689 -76.2181 213° Southwest 418 481 27,000 -960 Descending Washington Center
10:26AM 37.4767 -76.2983 215° Southwest 413 475 26,100 -960 Descending Washington Center
10:27AM 37.3864 -76.3839 217° Southwest 408 470 25,200 -900 Descending Washington Center
10:28AM 37.2961 -76.4611 214° Southwest 403 464 24,300 -600 Descending Washington Center
10:29AM 37.2203 -76.5542 224° Southwest 397 457 24,000 -600 Descending Washington Center
10:30AM 37.1547 -76.6603 232° Southwest 387 445 23,200 -540 Descending Washington Center
10:31AM 37.0892 -76.7608 231° Southwest 387 445 23,000 -120 Descending Washington Center
10:32AM 37.0214 -76.8667 231° Southwest 387 445 23,000  Level Washington Center
10:33AM 36.9642 -76.9567 232° Southwest 387 445 23,000  Level Washington Center
10:34AM 36.8897 -77.0722 231° Southwest 382 440 23,000  Level Washington Center
10:35AM 36.8236 -77.1747 231° Southwest 387 445 23,000  Level Washington Center
10:36AM 36.7578 -77.2744 231° Southwest 387 445 23,000  Level Washington Center
10:37AM 36.6914 -77.3767 231° Southwest 387 445 23,000 -180 Level Washington Center
10:38AM 36.6231 -77.4811 231° Southwest 387 445 22,700 -1,080 Descending Washington Center
10:39AM 36.5589 -77.5778 230° Southwest 387 445 20,900 -1,800 Descending Washington Center
10:40AM 36.4989 -77.6719 232° Southwest 376 433 19,200 -1,920 Descending Washington Center
10:41AM 36.4347 -77.7683 230° Southwest 365 420 17,200 -1,800 Descending Washington Center
10:42AM 36.3744 -77.8622 231° Southwest 360 414 15,600 -1,680 Descending Washington Center
10:43AM 36.3186 -77.9508 232° Southwest 355 409 13,900 -1,680 Descending Washington Center
10:43AM 36.2756 -78.0086 227° Southwest 329 379 12,900 -1,560 Descending Washington Center
10:44AM 36.2133 -78.1019 230° Southwest 325 374 11,200 -1,440 Descending Washington Center
10:45AM 36.1656 -78.1803 233° Southwest 314 361 10,000 -540 Descending Washington Center
10:47AM 36.1342 -78.2847 250° West 267 307 10,000  Level Washington Center
10:47AM 36.1244 -78.3436 258° West 228 262 10,000 -300 Level Washington Center
10:48AM 36.1142 -78.4228 261° West 211 243 9,500 -780 Descending Washington Center
10:49AM 36.1211 -78.4847 278° West 176 203 8,400 -1,380 Descending Washington Center
10:50AM 36.0908 -78.5325 232° Southwest 185 213 6,800 -1,620 Descending Washington Center
10:51AM 36.0583 -78.5725 225° Southwest 181 208 5,400 -1,500 Descending Washington Center
10:52AM 36.0283 -78.6125 227° Southwest 159 183 4,000 -1,080 Descending Washington Center
10:53AM 36.0003 -78.6497 227° Southwest 136 157 3,200 -780 Descending Washington Center